sensor_id;sensor_type;location;lat;lon;timestamp;temperature;humidity
35962;DHT22;22044;48.298;10.008;2023-07-02T00:02:06;17.20;99.90
35962;DHT22;22044;48.298;10.008;2023-07-02T00:04:53;17.30;99.90
35962;DHT22;22044;48.298;10.008;2023-07-02T00:07:40;17.30;99.90
35962;DHT22;22044;48.298;10.008;2023-07-02T00:10:25;17.20;99.90
35962;DHT22;22044;48.298;10.008;2023-07-02T00:13:11;17.20;99.90
35962;DHT22;22044;48.298;10.008;2023-07-02T00:15:57;17.20;99.90
35962;DHT22;22044;48.298;10.008;2023-07-02T00:18:42;17.10;99.90
35962;DHT22;22044;48.298;10.008;2023-07-02T00:21:29;17.10;99.90
35962;DHT22;22044;48.298;10.008;2023-07-02T00:24:17;17.10;99.90
35962;DHT22;22044;48.298;10.008;2023-07-02T00:27:03;17.10;99.90
35962;DHT22;22044;48.298;10.008;2023-07-02T00:29:49;17.00;99.90
35962;DHT22;22044;48.298;10.008;2023-07-02T00:32:35;17.00;99.90
35962;DHT22;22044;48.298;10.008;2023-07-02T00:35:21;17.00;99.90
35962;DHT22;22044;48.298;10.008;2023-07-02T00:38:08;16.80;99.90
35962;DHT22;22044;48.298;10.008;2023-07-02T00:40:54;16.70;99.90
35962;DHT22;22044;48.298;10.008;2023-07-02T00:43:40;16.70;99.90
35962;DHT22;22044;48.298;10.008;2023-07-02T00:46:27;16.70;99.90
35962;DHT22;22044;48.298;10.008;2023-07-02T00:49:13;16.60;99.90
35962;DHT22;22044;48.298;10.008;2023-07-02T00:51:59;16.70;99.90
35962;DHT22;22044;48.298;10.008;2023-07-02T00:54:47;16.60;99.90
35962;DHT22;22044;48.298;10.008;2023-07-02T00:57:32;16.70;99.90
35962;DHT22;22044;48.298;10.008;2023-07-02T01:00:18;16.70;99.90
35962;DHT22;22044;48.298;10.008;2023-07-02T01:03:04;16.60;99.90
35962;DHT22;22044;48.298;10.008;2023-07-02T01:05:49;16.70;99.90
35962;DHT22;22044;48.298;10.008;2023-07-02T01:08:35;16.70;99.90
35962;DHT22;22044;48.298;10.008;2023-07-02T01:11:26;16.60;99.90
35962;DHT22;22044;48.298;10.008;2023-07-02T01:14:19;16.80;99.90
35962;DHT22;22044;48.298;10.008;2023-07-02T01:17:06;16.80;99.90
35962;DHT22;22044;48.298;10.008;2023-07-02T01:19:54;17.00;99.90
35962;DHT22;22044;48.298;10.008;2023-07-02T01:22:44;17.00;99.90
35962;DHT22;22044;48.298;10.008;2023-07-02T01:25:29;17.00;99.90
35962;DHT22;22044;48.298;10.008;2023-07-02T01:28:15;17.00;99.90
35962;DHT22;22044;48.298;10.008;2023-07-02T01:31:00;16.70;99.90
35962;DHT22;22044;48.298;10.008;2023-07-02T01:33:46;16.70;99.90
35962;DHT22;22044;48.298;10.008;2023-07-02T01:36:35;16.70;99.90
35962;DHT22;22044;48.298;10.008;2023-07-02T01:39:20;16.70;99.90
35962;DHT22;22044;48.298;10.008;2023-07-02T01:42:10;16.60;99.90
35962;DHT22;22044;48.298;10.008;2023-07-02T01:44:55;16.50;99.90
35962;DHT22;22044;48.298;10.008;2023-07-02T01:47:41;16.50;99.90
35962;DHT22;22044;48.298;10.008;2023-07-02T01:50:28;16.60;99.90
35962;DHT22;22044;48.298;10.008;2023-07-02T01:53:15;16.60;99.90
35962;DHT22;22044;48.298;10.008;2023-07-02T01:56:00;16.60;99.90
35962;DHT22;22044;48.298;10.008;2023-07-02T01:58:46;16.30;99.90
35962;DHT22;22044;48.298;10.008;2023-07-02T02:01:32;16.20;99.90
35962;DHT22;22044;48.298;10.008;2023-07-02T02:04:17;16.00;99.90
35962;DHT22;22044;48.298;10.008;2023-07-02T02:07:03;16.10;99.90
35962;DHT22;22044;48.298;10.008;2023-07-02T02:09:51;16.10;99.90
35962;DHT22;22044;48.298;10.008;2023-07-02T02:12:38;16.10;99.90
35962;DHT22;22044;48.298;10.008;2023-07-02T02:15:25;16.20;99.90
35962;DHT22;22044;48.298;10.008;2023-07-02T02:18:10;16.20;99.90
35962;DHT22;22044;48.298;10.008;2023-07-02T02:20:56;16.30;99.90
35962;DHT22;22044;48.298;10.008;2023-07-02T02:23:42;16.40;99.90
35962;DHT22;22044;48.298;10.008;2023-07-02T02:26:29;16.40;99.90
35962;DHT22;22044;48.298;10.008;2023-07-02T02:29:14;16.30;99.90
35962;DHT22;22044;48.298;10.008;2023-07-02T02:32:00;16.20;99.90
35962;DHT22;22044;48.298;10.008;2023-07-02T02:34:46;16.30;99.90
35962;DHT22;22044;48.298;10.008;2023-07-02T02:37:33;16.40;99.90
35962;DHT22;22044;48.298;10.008;2023-07-02T02:40:20;16.40;99.90
35962;DHT22;22044;48.298;10.008;2023-07-02T02:43:07;16.30;99.90
35962;DHT22;22044;48.298;10.008;2023-07-02T02:45:55;16.30;99.90
35962;DHT22;22044;48.298;10.008;2023-07-02T02:48:40;16.30;99.90
35962;DHT22;22044;48.298;10.008;2023-07-02T02:51:26;16.20;99.90
35962;DHT22;22044;48.298;10.008;2023-07-02T02:54:12;16.10;99.90
35962;DHT22;22044;48.298;10.008;2023-07-02T02:56:57;16.00;99.90
35962;DHT22;22044;48.298;10.008;2023-07-02T02:59:44;16.10;99.90
35962;DHT22;22044;48.298;10.008;2023-07-02T03:02:30;16.10;99.90
35962;DHT22;22044;48.298;10.008;2023-07-02T03:05:16;16.10;99.90
35962;DHT22;22044;48.298;10.008;2023-07-02T03:08:02;16.00;99.90
35962;DHT22;22044;48.298;10.008;2023-07-02T03:10:47;16.00;99.90
35962;DHT22;22044;48.298;10.008;2023-07-02T03:13:33;16.10;99.90
35962;DHT22;22044;48.298;10.008;2023-07-02T03:16:20;16.10;99.90
35962;DHT22;22044;48.298;10.008;2023-07-02T03:19:06;16.10;99.90
35962;DHT22;22044;48.298;10.008;2023-07-02T03:21:51;16.00;99.90
35962;DHT22;22044;48.298;10.008;2023-07-02T03:24:37;16.00;99.90
35962;DHT22;22044;48.298;10.008;2023-07-02T03:27:23;16.00;99.90
35962;DHT22;22044;48.298;10.008;2023-07-02T03:30:09;16.00;99.90
35962;DHT22;22044;48.298;10.008;2023-07-02T03:32:57;15.90;99.90
35962;DHT22;22044;48.298;10.008;2023-07-02T03:35:43;15.80;99.90
35962;DHT22;22044;48.298;10.008;2023-07-02T03:38:28;15.80;99.90
35962;DHT22;22044;48.298;10.008;2023-07-02T03:41:14;15.80;99.90
35962;DHT22;22044;48.298;10.008;2023-07-02T03:44:00;15.70;99.90
35962;DHT22;22044;48.298;10.008;2023-07-02T03:46:45;15.70;99.90
35962;DHT22;22044;48.298;10.008;2023-07-02T03:49:32;15.70;99.90
35962;DHT22;22044;48.298;10.008;2023-07-02T03:52:18;15.70;99.90
35962;DHT22;22044;48.298;10.008;2023-07-02T03:55:04;15.70;99.90
35962;DHT22;22044;48.298;10.008;2023-07-02T03:57:50;15.80;99.90
35962;DHT22;22044;48.298;10.008;2023-07-02T04:00:36;15.80;99.90
35962;DHT22;22044;48.298;10.008;2023-07-02T04:03:21;15.80;99.90
35962;DHT22;22044;48.298;10.008;2023-07-02T04:06:08;15.80;99.90
35962;DHT22;22044;48.298;10.008;2023-07-02T04:08:54;15.80;99.90
35962;DHT22;22044;48.298;10.008;2023-07-02T04:11:39;15.80;99.90
35962;DHT22;22044;48.298;10.008;2023-07-02T04:14:25;15.90;99.90
35962;DHT22;22044;48.298;10.008;2023-07-02T04:17:11;15.80;99.90
35962;DHT22;22044;48.298;10.008;2023-07-02T04:19:59;15.80;99.90
35962;DHT22;22044;48.298;10.008;2023-07-02T04:22:46;15.60;99.90
35962;DHT22;22044;48.298;10.008;2023-07-02T04:25:32;15.70;99.90
35962;DHT22;22044;48.298;10.008;2023-07-02T04:28:18;15.60;99.90
35962;DHT22;22044;48.298;10.008;2023-07-02T04:31:04;15.60;99.90
35962;DHT22;22044;48.298;10.008;2023-07-02T04:33:49;15.80;99.90
35962;DHT22;22044;48.298;10.008;2023-07-02T04:36:35;15.80;99.90
35962;DHT22;22044;48.298;10.008;2023-07-02T04:39:22;15.90;99.90
35962;DHT22;22044;48.298;10.008;2023-07-02T04:42:08;15.90;99.90
35962;DHT22;22044;48.298;10.008;2023-07-02T04:44:54;16.00;99.90
35962;DHT22;22044;48.298;10.008;2023-07-02T04:47:39;16.00;99.90
35962;DHT22;22044;48.298;10.008;2023-07-02T04:50:25;16.00;99.90
35962;DHT22;22044;48.298;10.008;2023-07-02T04:53:11;15.90;99.90
35962;DHT22;22044;48.298;10.008;2023-07-02T04:55:58;15.80;99.90
35962;DHT22;22044;48.298;10.008;2023-07-02T04:58:44;15.90;99.90
35962;DHT22;22044;48.298;10.008;2023-07-02T05:01:30;16.00;99.90
35962;DHT22;22044;48.298;10.008;2023-07-02T05:04:15;16.10;99.90
35962;DHT22;22044;48.298;10.008;2023-07-02T05:07:01;16.20;99.90
35962;DHT22;22044;48.298;10.008;2023-07-02T05:09:47;16.20;99.90
35962;DHT22;22044;48.298;10.008;2023-07-02T05:12:35;16.30;99.90
35962;DHT22;22044;48.298;10.008;2023-07-02T05:15:21;16.40;99.90
35962;DHT22;22044;48.298;10.008;2023-07-02T05:18:06;16.40;99.90
35962;DHT22;22044;48.298;10.008;2023-07-02T05:20:52;16.30;99.90
35962;DHT22;22044;48.298;10.008;2023-07-02T05:23:37;16.30;99.90
35962;DHT22;22044;48.298;10.008;2023-07-02T05:26:23;16.20;99.90
35962;DHT22;22044;48.298;10.008;2023-07-02T05:29:11;16.10;99.90
35962;DHT22;22044;48.298;10.008;2023-07-02T05:31:58;16.00;99.90
35962;DHT22;22044;48.298;10.008;2023-07-02T05:34:43;16.10;99.90
35962;DHT22;22044;48.298;10.008;2023-07-02T05:37:29;16.00;99.90
35962;DHT22;22044;48.298;10.008;2023-07-02T05:40:15;15.90;99.90
35962;DHT22;22044;48.298;10.008;2023-07-02T05:43:00;15.90;99.90
35962;DHT22;22044;48.298;10.008;2023-07-02T05:45:49;15.90;99.90
35962;DHT22;22044;48.298;10.008;2023-07-02T05:48:35;15.90;99.90
35962;DHT22;22044;48.298;10.008;2023-07-02T05:51:20;15.90;99.90
35962;DHT22;22044;48.298;10.008;2023-07-02T05:54:07;16.00;99.90
35962;DHT22;22044;48.298;10.008;2023-07-02T05:56:52;16.00;99.90
35962;DHT22;22044;48.298;10.008;2023-07-02T05:59:39;16.00;99.90
35962;DHT22;22044;48.298;10.008;2023-07-02T06:02:26;15.90;99.90
35962;DHT22;22044;48.298;10.008;2023-07-02T06:05:11;15.80;99.90
35962;DHT22;22044;48.298;10.008;2023-07-02T06:07:57;15.70;99.90
35962;DHT22;22044;48.298;10.008;2023-07-02T06:10:43;15.80;99.90
35962;DHT22;22044;48.298;10.008;2023-07-02T06:13:28;15.80;99.90
35962;DHT22;22044;48.298;10.008;2023-07-02T06:16:14;15.90;99.90
35962;DHT22;22044;48.298;10.008;2023-07-02T06:19:01;16.00;99.90
35962;DHT22;22044;48.298;10.008;2023-07-02T06:21:46;16.00;99.90
35962;DHT22;22044;48.298;10.008;2023-07-02T06:24:32;16.20;99.90
35962;DHT22;22044;48.298;10.008;2023-07-02T06:27:18;16.20;99.90
35962;DHT22;22044;48.298;10.008;2023-07-02T06:30:05;16.20;99.90
35962;DHT22;22044;48.298;10.008;2023-07-02T06:32:51;16.30;99.90
35962;DHT22;22044;48.298;10.008;2023-07-02T06:35:38;16.20;99.90
35962;DHT22;22044;48.298;10.008;2023-07-02T06:38:23;16.30;99.90
35962;DHT22;22044;48.298;10.008;2023-07-02T06:41:09;16.40;99.90
35962;DHT22;22044;48.298;10.008;2023-07-02T06:43:54;16.20;99.90
35962;DHT22;22044;48.298;10.008;2023-07-02T06:46:40;16.30;99.90
35962;DHT22;22044;48.298;10.008;2023-07-02T06:49:26;16.40;99.90
35962;DHT22;22044;48.298;10.008;2023-07-02T06:52:13;16.40;99.90
35962;DHT22;22044;48.298;10.008;2023-07-02T06:54:58;16.60;99.90
35962;DHT22;22044;48.298;10.008;2023-07-02T06:57:44;16.70;99.90
35962;DHT22;22044;48.298;10.008;2023-07-02T07:00:31;16.80;99.90
35962;DHT22;22044;48.298;10.008;2023-07-02T07:03:17;16.90;99.90
35962;DHT22;22044;48.298;10.008;2023-07-02T07:06:03;17.00;99.90
35962;DHT22;22044;48.298;10.008;2023-07-02T07:08:50;17.10;99.90
35962;DHT22;22044;48.298;10.008;2023-07-02T07:11:36;17.20;99.90
35962;DHT22;22044;48.298;10.008;2023-07-02T07:14:22;17.20;99.90
35962;DHT22;22044;48.298;10.008;2023-07-02T07:17:08;17.20;99.90
35962;DHT22;22044;48.298;10.008;2023-07-02T07:19:53;17.20;99.90
35962;DHT22;22044;48.298;10.008;2023-07-02T07:22:39;17.20;99.90
35962;DHT22;22044;48.298;10.008;2023-07-02T07:25:26;17.20;99.90
35962;DHT22;22044;48.298;10.008;2023-07-02T07:28:12;17.30;99.90
35962;DHT22;22044;48.298;10.008;2023-07-02T07:30:59;17.40;99.90
35962;DHT22;22044;48.298;10.008;2023-07-02T07:33:46;17.60;99.90
35962;DHT22;22044;48.298;10.008;2023-07-02T07:36:32;17.70;99.90
35962;DHT22;22044;48.298;10.008;2023-07-02T07:39:17;18.00;99.90
35962;DHT22;22044;48.298;10.008;2023-07-02T07:42:05;18.10;99.90
35962;DHT22;22044;48.298;10.008;2023-07-02T07:44:51;18.10;99.90
35962;DHT22;22044;48.298;10.008;2023-07-02T07:47:37;18.10;99.90
35962;DHT22;22044;48.298;10.008;2023-07-02T07:50:22;18.10;99.90
35962;DHT22;22044;48.298;10.008;2023-07-02T07:53:08;18.00;99.90
35962;DHT22;22044;48.298;10.008;2023-07-02T07:55:54;17.90;99.90
35962;DHT22;22044;48.298;10.008;2023-07-02T07:58:41;17.90;99.90
35962;DHT22;22044;48.298;10.008;2023-07-02T08:01:26;17.90;99.90
35962;DHT22;22044;48.298;10.008;2023-07-02T08:04:12;18.00;99.90
35962;DHT22;22044;48.298;10.008;2023-07-02T08:06:57;18.00;99.90
35962;DHT22;22044;48.298;10.008;2023-07-02T08:09:43;18.10;99.90
35962;DHT22;22044;48.298;10.008;2023-07-02T08:12:29;18.30;99.90
35962;DHT22;22044;48.298;10.008;2023-07-02T08:15:17;18.30;99.90
35962;DHT22;22044;48.298;10.008;2023-07-02T08:18:02;18.30;99.90
35962;DHT22;22044;48.298;10.008;2023-07-02T08:20:48;18.30;99.90
35962;DHT22;22044;48.298;10.008;2023-07-02T08:23:34;18.40;99.90
35962;DHT22;22044;48.298;10.008;2023-07-02T08:26:20;18.40;99.90
35962;DHT22;22044;48.298;10.008;2023-07-02T08:29:06;18.50;99.90
35962;DHT22;22044;48.298;10.008;2023-07-02T08:31:53;18.40;99.90
35962;DHT22;22044;48.298;10.008;2023-07-02T08:34:39;18.50;99.90
35962;DHT22;22044;48.298;10.008;2023-07-02T08:37:24;18.70;99.90
35962;DHT22;22044;48.298;10.008;2023-07-02T08:40:17;18.70;99.90
35962;DHT22;22044;48.298;10.008;2023-07-02T08:43:03;18.60;99.90
35962;DHT22;22044;48.298;10.008;2023-07-02T08:45:48;18.60;99.90
35962;DHT22;22044;48.298;10.008;2023-07-02T08:48:36;18.60;99.90
35962;DHT22;22044;48.298;10.008;2023-07-02T08:51:21;18.40;99.90
35962;DHT22;22044;48.298;10.008;2023-07-02T08:54:07;18.60;99.90
35962;DHT22;22044;48.298;10.008;2023-07-02T08:56:53;18.60;99.90
35962;DHT22;22044;48.298;10.008;2023-07-02T08:59:39;18.70;99.90
35962;DHT22;22044;48.298;10.008;2023-07-02T09:02:32;18.70;99.90
35962;DHT22;22044;48.298;10.008;2023-07-02T09:05:19;18.90;99.90
35962;DHT22;22044;48.298;10.008;2023-07-02T09:08:04;18.90;99.90
35962;DHT22;22044;48.298;10.008;2023-07-02T09:10:50;19.00;99.90
35962;DHT22;22044;48.298;10.008;2023-07-02T09:13:44;19.20;99.90
35962;DHT22;22044;48.298;10.008;2023-07-02T09:16:33;19.30;99.90
35962;DHT22;22044;48.298;10.008;2023-07-02T09:19:21;19.40;99.90
35962;DHT22;22044;48.298;10.008;2023-07-02T09:22:11;19.50;99.90
35962;DHT22;22044;48.298;10.008;2023-07-02T09:25:01;19.60;99.90
35962;DHT22;22044;48.298;10.008;2023-07-02T09:27:46;19.80;99.90
35962;DHT22;22044;48.298;10.008;2023-07-02T09:30:32;19.90;99.90
35962;DHT22;22044;48.298;10.008;2023-07-02T09:33:17;20.10;99.90
35962;DHT22;22044;48.298;10.008;2023-07-02T09:36:03;20.10;99.90
35962;DHT22;22044;48.298;10.008;2023-07-02T09:38:50;20.30;99.90
35962;DHT22;22044;48.298;10.008;2023-07-02T09:41:40;20.40;99.90
35962;DHT22;22044;48.298;10.008;2023-07-02T09:47:10;20.70;99.90
35962;DHT22;22044;48.298;10.008;2023-07-02T09:49:59;20.70;99.90
35962;DHT22;22044;48.298;10.008;2023-07-02T09:55:30;21.00;99.90
35962;DHT22;22044;48.298;10.008;2023-07-02T10:00:56;21.20;99.90
35962;DHT22;22044;48.298;10.008;2023-07-02T10:03:42;21.30;99.90
35962;DHT22;22044;48.298;10.008;2023-07-02T10:06:28;21.50;99.90
35962;DHT22;22044;48.298;10.008;2023-07-02T10:09:14;21.70;99.90
35962;DHT22;22044;48.298;10.008;2023-07-02T10:12:01;21.60;99.90
35962;DHT22;22044;48.298;10.008;2023-07-02T10:14:48;21.80;99.90
35962;DHT22;22044;48.298;10.008;2023-07-02T10:17:35;21.90;99.90
35962;DHT22;22044;48.298;10.008;2023-07-02T10:20:31;22.00;99.90
35962;DHT22;22044;48.298;10.008;2023-07-02T10:23:19;21.80;99.90
35962;DHT22;22044;48.298;10.008;2023-07-02T10:26:13;21.60;99.90
35962;DHT22;22044;48.298;10.008;2023-07-02T10:29:00;21.70;99.90
35962;DHT22;22044;48.298;10.008;2023-07-02T10:31:50;21.60;99.90
35962;DHT22;22044;48.298;10.008;2023-07-02T10:34:35;22.10;99.90
35962;DHT22;22044;48.298;10.008;2023-07-02T10:37:21;22.30;99.90
35962;DHT22;22044;48.298;10.008;2023-07-02T10:40:08;22.60;99.90
35962;DHT22;22044;48.298;10.008;2023-07-02T10:42:54;22.60;99.90
35962;DHT22;22044;48.298;10.008;2023-07-02T10:45:49;22.60;99.90
35962;DHT22;22044;48.298;10.008;2023-07-02T10:56:43;22.40;99.90
35962;DHT22;22044;48.298;10.008;2023-07-02T11:02:40;22.90;99.90
35962;DHT22;22044;48.298;10.008;2023-07-02T11:10:50;23.20;99.90
35962;DHT22;22044;48.298;10.008;2023-07-02T11:13:44;23.20;99.90
35962;DHT22;22044;48.298;10.008;2023-07-02T11:19:15;23.40;99.90
35962;DHT22;22044;48.298;10.008;2023-07-02T11:22:02;23.50;99.90
35962;DHT22;22044;48.298;10.008;2023-07-02T11:27:30;23.40;99.90
35962;DHT22;22044;48.298;10.008;2023-07-02T11:30:15;23.30;99.90
35962;DHT22;22044;48.298;10.008;2023-07-02T11:35:44;23.30;99.90
35962;DHT22;22044;48.298;10.008;2023-07-02T11:38:30;23.40;99.90
35962;DHT22;22044;48.298;10.008;2023-07-02T11:41:19;23.50;99.90
35962;DHT22;22044;48.298;10.008;2023-07-02T11:44:07;23.70;99.90
35962;DHT22;22044;48.298;10.008;2023-07-02T11:46:52;23.90;99.90
35962;DHT22;22044;48.298;10.008;2023-07-02T11:55:31;23.70;99.90
35962;DHT22;22044;48.298;10.008;2023-07-02T11:58:17;23.90;99.90
35962;DHT22;22044;48.298;10.008;2023-07-02T12:01:02;24.10;99.90
35962;DHT22;22044;48.298;10.008;2023-07-02T12:03:48;24.00;99.90
35962;DHT22;22044;48.298;10.008;2023-07-02T12:09:16;24.10;99.90
35962;DHT22;22044;48.298;10.008;2023-07-02T12:12:04;23.90;99.90
35962;DHT22;22044;48.298;10.008;2023-07-02T12:17:32;24.40;99.90
35962;DHT22;22044;48.298;10.008;2023-07-02T12:20:17;24.50;99.90
35962;DHT22;22044;48.298;10.008;2023-07-02T12:23:04;24.30;99.90
35962;DHT22;22044;48.298;10.008;2023-07-02T12:25:50;24.20;99.90
35962;DHT22;22044;48.298;10.008;2023-07-02T12:28:40;24.00;99.90
35962;DHT22;22044;48.298;10.008;2023-07-02T12:31:26;24.00;99.90
35962;DHT22;22044;48.298;10.008;2023-07-02T12:34:11;24.00;99.90
35962;DHT22;22044;48.298;10.008;2023-07-02T12:42:49;23.60;99.90
35962;DHT22;22044;48.298;10.008;2023-07-02T12:45:36;23.70;99.90
35962;DHT22;22044;48.298;10.008;2023-07-02T12:48:22;23.50;99.90
35962;DHT22;22044;48.298;10.008;2023-07-02T12:51:08;23.50;99.90
35962;DHT22;22044;48.298;10.008;2023-07-02T12:53:53;23.40;99.90
35962;DHT22;22044;48.298;10.008;2023-07-02T12:56:39;23.00;99.90
35962;DHT22;22044;48.298;10.008;2023-07-02T12:59:27;23.00;99.90
35962;DHT22;22044;48.298;10.008;2023-07-02T13:02:14;23.20;99.90
35962;DHT22;22044;48.298;10.008;2023-07-02T13:05:00;23.20;99.90
35962;DHT22;22044;48.298;10.008;2023-07-02T13:07:45;23.20;99.90
35962;DHT22;22044;48.298;10.008;2023-07-02T13:10:32;23.60;99.90
35962;DHT22;22044;48.298;10.008;2023-07-02T13:13:18;23.60;99.90
35962;DHT22;22044;48.298;10.008;2023-07-02T13:16:04;23.40;99.90
35962;DHT22;22044;48.298;10.008;2023-07-02T13:18:54;23.70;99.90
35962;DHT22;22044;48.298;10.008;2023-07-02T13:21:41;23.80;99.90
35962;DHT22;22044;48.298;10.008;2023-07-02T13:24:28;23.60;99.90
35962;DHT22;22044;48.298;10.008;2023-07-02T13:27:17;23.70;99.90
35962;DHT22;22044;48.298;10.008;2023-07-02T13:30:04;23.70;99.90
35962;DHT22;22044;48.298;10.008;2023-07-02T13:32:52;23.70;99.90
35962;DHT22;22044;48.298;10.008;2023-07-02T13:35:39;23.70;99.90
35962;DHT22;22044;48.298;10.008;2023-07-02T13:38:25;24.00;99.90
35962;DHT22;22044;48.298;10.008;2023-07-02T13:41:11;24.20;99.90
35962;DHT22;22044;48.298;10.008;2023-07-02T13:43:56;24.00;99.90
35962;DHT22;22044;48.298;10.008;2023-07-02T13:46:43;23.90;99.90
35962;DHT22;22044;48.298;10.008;2023-07-02T13:49:30;23.70;99.90
35962;DHT22;22044;48.298;10.008;2023-07-02T13:52:17;23.70;99.90
35962;DHT22;22044;48.298;10.008;2023-07-02T13:55:03;23.60;99.90
35962;DHT22;22044;48.298;10.008;2023-07-02T13:57:50;23.30;99.90
35962;DHT22;22044;48.298;10.008;2023-07-02T14:00:38;23.40;99.90
35962;DHT22;22044;48.298;10.008;2023-07-02T14:03:23;23.20;99.90
35962;DHT22;22044;48.298;10.008;2023-07-02T14:06:11;23.30;99.90
35962;DHT22;22044;48.298;10.008;2023-07-02T14:08:57;23.80;99.90
35962;DHT22;22044;48.298;10.008;2023-07-02T14:11:43;23.90;99.90
35962;DHT22;22044;48.298;10.008;2023-07-02T14:14:29;24.10;99.90
35962;DHT22;22044;48.298;10.008;2023-07-02T14:17:16;23.70;99.90
35962;DHT22;22044;48.298;10.008;2023-07-02T14:20:02;23.60;99.90
35962;DHT22;22044;48.298;10.008;2023-07-02T14:22:48;23.60;99.90
35962;DHT22;22044;48.298;10.008;2023-07-02T14:25:33;23.60;99.90
35962;DHT22;22044;48.298;10.008;2023-07-02T14:28:19;23.60;99.90
35962;DHT22;22044;48.298;10.008;2023-07-02T14:31:05;23.90;99.90
35962;DHT22;22044;48.298;10.008;2023-07-02T14:33:53;24.20;99.90
35962;DHT22;22044;48.298;10.008;2023-07-02T14:36:38;24.30;99.90
35962;DHT22;22044;48.298;10.008;2023-07-02T14:39:24;24.40;99.90
35962;DHT22;22044;48.298;10.008;2023-07-02T14:42:09;24.30;99.90
35962;DHT22;22044;48.298;10.008;2023-07-02T14:44:55;24.00;99.90
35962;DHT22;22044;48.298;10.008;2023-07-02T14:47:41;24.10;99.90
35962;DHT22;22044;48.298;10.008;2023-07-02T14:50:29;24.10;99.90
35962;DHT22;22044;48.298;10.008;2023-07-02T14:53:15;24.40;99.90
35962;DHT22;22044;48.298;10.008;2023-07-02T14:56:02;24.60;99.90
35962;DHT22;22044;48.298;10.008;2023-07-02T14:58:47;24.90;99.90
35962;DHT22;22044;48.298;10.008;2023-07-02T15:01:33;24.80;99.90
35962;DHT22;22044;48.298;10.008;2023-07-02T15:04:19;24.50;99.90
35962;DHT22;22044;48.298;10.008;2023-07-02T15:07:06;24.50;99.90
35962;DHT22;22044;48.298;10.008;2023-07-02T15:09:52;24.30;99.90
35962;DHT22;22044;48.298;10.008;2023-07-02T15:12:38;24.30;99.90
35962;DHT22;22044;48.298;10.008;2023-07-02T15:15:24;24.50;99.90
35962;DHT22;22044;48.298;10.008;2023-07-02T15:18:09;24.40;99.90
35962;DHT22;22044;48.298;10.008;2023-07-02T15:20:55;24.20;99.90
35962;DHT22;22044;48.298;10.008;2023-07-02T15:23:42;24.20;99.90
35962;DHT22;22044;48.298;10.008;2023-07-02T15:26:29;24.20;99.90
35962;DHT22;22044;48.298;10.008;2023-07-02T15:29:15;24.30;99.90
35962;DHT22;22044;48.298;10.008;2023-07-02T15:32:01;24.30;99.90
35962;DHT22;22044;48.298;10.008;2023-07-02T15:34:47;24.20;99.90
35962;DHT22;22044;48.298;10.008;2023-07-02T15:37:32;24.00;99.90
35962;DHT22;22044;48.298;10.008;2023-07-02T15:40:19;24.00;99.90
35962;DHT22;22044;48.298;10.008;2023-07-02T15:43:05;23.80;99.90
35962;DHT22;22044;48.298;10.008;2023-07-02T15:45:52;23.70;99.90
35962;DHT22;22044;48.298;10.008;2023-07-02T15:48:37;23.60;99.90
35962;DHT22;22044;48.298;10.008;2023-07-02T15:51:23;23.20;99.90
35962;DHT22;22044;48.298;10.008;2023-07-02T15:54:10;23.30;99.90
35962;DHT22;22044;48.298;10.008;2023-07-02T15:56:57;23.70;99.90
35962;DHT22;22044;48.298;10.008;2023-07-02T15:59:43;23.80;99.90
35962;DHT22;22044;48.298;10.008;2023-07-02T16:02:31;23.80;99.90
35962;DHT22;22044;48.298;10.008;2023-07-02T16:05:16;23.60;99.90
35962;DHT22;22044;48.298;10.008;2023-07-02T16:08:02;23.40;99.90
35962;DHT22;22044;48.298;10.008;2023-07-02T16:10:47;23.40;99.90
35962;DHT22;22044;48.298;10.008;2023-07-02T16:13:35;23.40;99.90
35962;DHT22;22044;48.298;10.008;2023-07-02T16:16:21;23.40;99.90
35962;DHT22;22044;48.298;10.008;2023-07-02T16:19:07;23.40;99.90
35962;DHT22;22044;48.298;10.008;2023-07-02T16:21:53;23.50;99.90
35962;DHT22;22044;48.298;10.008;2023-07-02T16:24:39;23.40;99.90
35962;DHT22;22044;48.298;10.008;2023-07-02T16:27:24;23.20;99.90
35962;DHT22;22044;48.298;10.008;2023-07-02T16:30:12;23.20;99.90
35962;DHT22;22044;48.298;10.008;2023-07-02T16:32:57;23.30;99.90
35962;DHT22;22044;48.298;10.008;2023-07-02T16:35:43;23.40;99.90
35962;DHT22;22044;48.298;10.008;2023-07-02T16:38:29;23.60;99.90
35962;DHT22;22044;48.298;10.008;2023-07-02T16:41:14;23.90;99.90
35962;DHT22;22044;48.298;10.008;2023-07-02T16:44:00;24.10;99.90
35962;DHT22;22044;48.298;10.008;2023-07-02T16:46:48;24.20;99.90
35962;DHT22;22044;48.298;10.008;2023-07-02T16:49:35;24.00;99.90
35962;DHT22;22044;48.298;10.008;2023-07-02T16:52:21;24.00;99.90
35962;DHT22;22044;48.298;10.008;2023-07-02T16:55:08;24.00;99.90
35962;DHT22;22044;48.298;10.008;2023-07-02T16:57:54;24.10;99.80
35962;DHT22;22044;48.298;10.008;2023-07-02T17:00:44;24.20;99.90
35962;DHT22;22044;48.298;10.008;2023-07-02T17:03:31;23.90;99.90
35962;DHT22;22044;48.298;10.008;2023-07-02T17:06:17;23.90;99.90
35962;DHT22;22044;48.298;10.008;2023-07-02T17:09:18;23.70;99.90
35962;DHT22;22044;48.298;10.008;2023-07-02T17:12:07;23.50;99.90
35962;DHT22;22044;48.298;10.008;2023-07-02T17:14:55;23.50;99.90
35962;DHT22;22044;48.298;10.008;2023-07-02T17:17:41;23.70;99.90
35962;DHT22;22044;48.298;10.008;2023-07-02T17:20:28;23.90;99.90
35962;DHT22;22044;48.298;10.008;2023-07-02T17:23:14;24.00;99.90
35962;DHT22;22044;48.298;10.008;2023-07-02T17:26:00;24.00;99.90
35962;DHT22;22044;48.298;10.008;2023-07-02T17:28:48;24.20;99.90
35962;DHT22;22044;48.298;10.008;2023-07-02T17:31:34;24.20;98.50
35962;DHT22;22044;48.298;10.008;2023-07-02T17:34:21;24.20;98.30
35962;DHT22;22044;48.298;10.008;2023-07-02T17:37:09;24.10;98.80
35962;DHT22;22044;48.298;10.008;2023-07-02T17:39:56;23.80;99.90
35962;DHT22;22044;48.298;10.008;2023-07-02T17:42:42;23.80;99.90
35962;DHT22;22044;48.298;10.008;2023-07-02T17:45:28;23.60;99.90
35962;DHT22;22044;48.298;10.008;2023-07-02T17:48:14;23.40;99.90
35962;DHT22;22044;48.298;10.008;2023-07-02T17:51:00;23.40;99.90
35962;DHT22;22044;48.298;10.008;2023-07-02T17:53:47;23.40;99.90
35962;DHT22;22044;48.298;10.008;2023-07-02T17:56:33;23.40;99.90
35962;DHT22;22044;48.298;10.008;2023-07-02T17:59:20;23.40;99.90
35962;DHT22;22044;48.298;10.008;2023-07-02T18:02:08;23.30;99.90
35962;DHT22;22044;48.298;10.008;2023-07-02T18:04:54;23.30;99.90